createdAt,value
2023-01-05T00:01:10.028Z,99824.91
2023-01-05T00:03:40.032Z,99825.13
2023-01-05T00:06:15.750Z,99832.06
2023-01-05T00:08:42.398Z,99830.25
2023-01-05T00:11:38.965Z,99825.88
2023-01-05T00:14:25.338Z,99819.81
2023-01-05T00:17:10.687Z,99813.66
2023-01-05T00:19:55.954Z,99818.81
2023-01-05T00:22:30.706Z,99812.69
2023-01-05T00:25:12.115Z,99800.47
2023-01-05T00:27:40.861Z,99800.41
2023-01-05T00:30:08.535Z,99803.13
2023-01-05T00:32:35.371Z,99808.34
2023-01-05T00:35:02.339Z,99818.00
2023-01-05T00:37:32.481Z,99818.91
2023-01-05T00:39:59.220Z,99814.47
2023-01-05T00:42:26.061Z,99821.53
2023-01-05T00:44:52.738Z,99816.00
2023-01-05T00:47:19.358Z,99823.75
2023-01-05T00:49:46.045Z,99815.84
2023-01-05T00:52:12.592Z,99815.13
2023-01-05T00:54:39.188Z,99810.59
2023-01-05T00:57:07.324Z,99804.47
2023-01-05T00:59:34.128Z,99803.66
2023-01-05T01:02:21.282Z,99808.03
2023-01-05T01:04:48.052Z,99802.84
2023-01-05T01:07:14.704Z,99794.94
2023-01-05T01:09:41.715Z,99802.66
2023-01-05T01:12:08.312Z,99802.75
2023-01-05T01:14:35.047Z,99806.19
2023-01-05T01:17:01.884Z,99801.78
2023-01-05T01:19:28.522Z,99804.56
2023-01-05T01:21:55.458Z,99798.31
2023-01-05T01:24:25.149Z,99800.94
2023-01-05T01:26:52.215Z,99794.78
2023-01-05T01:29:19.006Z,99800.06
2023-01-05T01:31:48.150Z,99794.66
2023-01-05T01:34:15.086Z,99799.97
2023-01-05T01:36:42.182Z,99801.66
2023-01-05T01:39:09.509Z,99797.06
2023-01-05T01:41:36.445Z,99801.44
2023-01-05T01:44:03.373Z,99803.97
2023-01-05T01:46:30.023Z,99805.72
2023-01-05T01:49:00.987Z,99799.50
2023-01-05T01:51:33.858Z,99802.88
2023-01-05T01:54:03.377Z,99796.63
2023-01-05T01:56:37.148Z,99806.22
2023-01-05T01:59:04.065Z,99812.22
2023-01-05T02:01:30.958Z,99788.56
2023-01-05T02:03:58.068Z,99790.22
2023-01-05T02:06:24.755Z,99795.44
2023-01-05T02:08:51.472Z,99787.44
2023-01-05T02:11:36.471Z,99786.53
2023-01-05T02:14:26.523Z,99787.59
2023-01-05T02:17:11.933Z,99796.91
2023-01-05T02:19:41.547Z,99792.41
2023-01-05T02:22:26.467Z,99795.03
2023-01-05T02:24:59.060Z,99795.03
2023-01-05T02:27:55.867Z,99789.78
2023-01-05T02:30:54.293Z,99792.41
2023-01-05T02:33:44.492Z,99790.53
2023-01-05T02:36:28.900Z,99787.91
2023-01-05T02:38:57.683Z,99783.50
2023-01-05T02:41:29.103Z,99780.03
2023-01-05T02:43:56.916Z,99793.22
2023-01-05T02:46:23.564Z,99779.13
2023-01-05T02:48:52.200Z,99789.56
2023-01-05T02:51:24.462Z,99782.69
2023-01-05T02:54:01.946Z,99779.28
2023-01-05T02:56:34.026Z,99780.00
2023-01-05T02:59:12.489Z,99780.03
2023-01-05T03:01:42.933Z,99798.59
2023-01-05T03:04:13.624Z,99803.00
2023-01-05T03:06:58.509Z,99825.78
2023-01-05T03:09:27.958Z,99809.13
2023-01-05T03:12:37.230Z,99807.28
2023-01-05T03:15:08.726Z,99815.16
2023-01-05T03:17:41.136Z,99818.59
2023-01-05T03:20:09.141Z,99814.34
2023-01-05T03:22:54.606Z,99809.75
2023-01-05T03:25:41.319Z,99805.38
2023-01-05T03:28:31.636Z,99812.41
2023-01-05T03:31:30.314Z,99812.47
2023-01-05T03:34:28.588Z,99824.97
2023-01-05T03:37:02.443Z,99832.88
2023-01-05T03:39:30.842Z,99827.75
2023-01-05T03:41:58.063Z,99833.19
2023-01-05T03:44:24.733Z,99836.75
2023-01-05T03:46:51.619Z,99853.19
2023-01-05T03:49:18.264Z,99853.09
2023-01-05T03:51:44.890Z,99846.16
2023-01-05T03:54:11.551Z,99847.97
2023-01-05T03:56:38.584Z,99862.72
2023-01-05T03:59:05.198Z,99854.81
2023-01-05T04:01:31.902Z,99861.38
2023-01-05T04:03:58.686Z,99864.75
2023-01-05T04:06:25.420Z,99868.94
2023-01-05T04:08:52.055Z,99882.13
2023-01-05T04:11:20.701Z,99872.59
2023-01-05T04:13:47.469Z,99881.22
2023-01-05T04:16:14.569Z,99875.19
2023-01-05T04:18:41.374Z,99878.19
2023-01-05T04:21:08.162Z,99872.91
2023-01-05T04:23:35.234Z,99878.00
2023-01-05T04:26:02.019Z,99864.13
2023-01-05T04:28:28.791Z,99865.06
2023-01-05T04:30:55.944Z,99865.22
2023-01-05T04:33:23.404Z,99868.81
2023-01-05T04:35:50.385Z,99870.56
2023-01-05T04:38:17.505Z,99881.97
2023-01-05T04:40:48.713Z,99880.19
2023-01-05T04:43:15.359Z,99874.00
2023-01-05T04:45:42.008Z,99874.00
2023-01-05T04:48:08.793Z,99873.03
2023-01-05T04:50:35.399Z,99884.38
2023-01-05T04:53:02.025Z,99887.09
2023-01-05T04:55:28.649Z,99896.72
2023-01-05T04:57:55.310Z,99892.31
2023-01-05T05:00:22.046Z,99889.88
2023-01-05T05:02:49.268Z,99889.88
2023-01-05T05:05:16.116Z,99893.34
2023-01-05T05:07:42.808Z,99895.19
2023-01-05T05:10:09.653Z,99897.06
2023-01-05T05:12:36.277Z,99898.31
2023-01-05T05:15:03.043Z,99897.25
2023-01-05T05:17:29.691Z,99904.16
2023-01-05T05:19:56.303Z,99902.44
2023-01-05T05:22:22.932Z,99895.53
2023-01-05T05:24:49.597Z,99903.44
2023-01-05T05:27:16.236Z,99909.38
2023-01-05T05:29:42.855Z,99901.63
2023-01-05T05:32:09.817Z,99899.03
2023-01-05T05:34:36.427Z,99892.81
2023-01-05T05:37:03.052Z,99899.94
2023-01-05T05:39:29.728Z,99906.97
2023-01-05T05:41:56.379Z,99906.06
2023-01-05T05:44:23.026Z,99910.50
2023-01-05T05:46:49.681Z,99913.00
2023-01-05T05:49:16.530Z,99922.53
2023-01-05T05:51:43.127Z,99921.03
2023-01-05T05:54:09.841Z,99935.84
2023-01-05T05:56:36.455Z,99932.38
2023-01-05T05:59:03.140Z,99935.97
2023-01-05T06:01:29.989Z,99931.66
2023-01-05T06:03:56.861Z,99932.53
2023-01-05T06:06:23.454Z,99926.41
2023-01-05T06:08:50.066Z,99948.34
2023-01-05T06:11:16.698Z,99941.31
2023-01-05T06:13:43.934Z,99940.53
2023-01-05T06:16:10.647Z,99932.91
2023-01-05T06:18:37.339Z,99937.31
2023-01-05T06:21:04.095Z,99948.91
2023-01-05T06:23:30.822Z,99950.75
2023-01-05T06:25:57.473Z,99957.09
2023-01-05T06:28:25.628Z,99950.94
2023-01-05T06:30:52.240Z,99959.00
2023-01-05T06:33:18.922Z,99959.03
2023-01-05T06:35:45.617Z,99962.56
2023-01-05T06:38:12.350Z,99968.78
2023-01-05T06:40:40.571Z,99975.91
2023-01-05T06:43:07.297Z,99988.41
2023-01-05T06:45:34.045Z,99987.56
2023-01-05T06:48:01.153Z,99992.84
2023-01-05T06:50:27.772Z,99986.69
2023-01-05T06:52:54.381Z,99992.66
2023-01-05T06:55:21.931Z,99990.75
2023-01-05T06:57:48.707Z,99993.41
2023-01-05T07:00:15.834Z,99993.38
2023-01-05T07:02:42.446Z,100004.81
2023-01-05T07:05:09.616Z,100006.72
2023-01-05T07:07:36.931Z,100012.84
2023-01-05T07:10:04.209Z,100018.94
2023-01-05T07:12:30.907Z,100026.84
2023-01-05T07:14:58.064Z,100018.00
2023-01-05T07:17:25.221Z,100032.84
2023-01-05T07:19:51.924Z,100022.28
2023-01-05T07:22:18.606Z,100033.00
2023-01-05T07:24:45.222Z,100033.88
2023-01-05T07:27:11.813Z,100033.66
2023-01-05T07:29:38.406Z,100045.09
2023-01-05T07:32:05.187Z,100047.75
2023-01-05T07:34:31.881Z,100056.50
2023-01-05T07:36:58.469Z,100043.25
2023-01-05T07:39:25.073Z,100053.00
2023-01-05T07:41:51.699Z,100050.28
2023-01-05T07:44:18.388Z,100045.13
2023-01-05T07:46:44.975Z,100040.63
2023-01-05T07:49:11.716Z,100052.00
2023-01-05T07:51:38.641Z,100051.25
2023-01-05T07:54:05.246Z,100051.09
2023-01-05T07:56:31.923Z,100062.53
2023-01-05T07:58:59.372Z,100057.34
2023-01-05T08:01:26.065Z,100059.00
2023-01-05T08:03:52.912Z,100054.69
2023-01-05T08:06:20.528Z,100056.31
2023-01-05T08:08:47.719Z,100068.69
2023-01-05T08:11:15.717Z,100065.13
2023-01-05T08:14:02.888Z,100079.97
2023-01-05T08:16:31.580Z,100070.25
2023-01-05T08:18:59.033Z,100081.72
2023-01-05T08:21:25.718Z,100072.06
2023-01-05T08:23:53.335Z,100073.72
2023-01-05T08:26:22.853Z,100081.50
2023-01-05T08:28:50.419Z,100089.38
2023-01-05T08:31:20.387Z,100091.16
2023-01-05T08:33:47.082Z,100100.88
2023-01-05T08:36:16.207Z,100095.66
2023-01-05T08:38:49.488Z,100100.91
2023-01-05T08:41:28.460Z,100104.38
2023-01-05T08:43:57.019Z,100099.03
2023-01-05T08:46:26.485Z,100121.91
2023-01-05T08:48:55.326Z,100113.09
2023-01-05T08:51:22.068Z,100120.19
2023-01-05T08:53:48.859Z,100121.06
2023-01-05T08:56:15.520Z,100117.56
2023-01-05T08:58:42.371Z,100123.59
2023-01-05T09:01:15.062Z,100099.97
2023-01-05T09:03:41.830Z,100105.28
2023-01-05T09:06:11.886Z,100110.59
2023-01-05T09:08:39.604Z,100122.03
2023-01-05T09:11:13.841Z,100119.31
2023-01-05T09:13:40.652Z,100114.91
2023-01-05T09:16:08.322Z,100113.19
2023-01-05T09:18:35.973Z,100127.13
2023-01-05T09:21:03.188Z,100115.59
2023-01-05T09:23:29.866Z,100138.31
2023-01-05T09:25:56.525Z,100111.03
2023-01-05T09:28:23.333Z,100132.97
2023-01-05T09:30:51.035Z,100131.13
2023-01-05T09:33:18.046Z,100137.28
2023-01-05T09:35:44.681Z,100126.84
2023-01-05T09:38:11.375Z,100151.38
2023-01-05T09:40:41.675Z,100152.22
2023-01-05T09:43:14.269Z,100147.03
2023-01-05T09:45:41.230Z,100155.72
2023-01-05T09:48:10.209Z,100160.13
2023-01-05T09:50:36.829Z,100147.88
2023-01-05T09:53:04.747Z,100152.19
2023-01-05T09:55:33.015Z,100171.53
2023-01-05T09:58:03.675Z,100174.25
2023-01-05T10:00:30.569Z,100178.59
2023-01-05T10:03:00.234Z,100182.94
2023-01-05T10:05:28.266Z,100185.53
2023-01-05T10:08:02.665Z,100188.13
2023-01-05T10:10:37.445Z,100193.25
2023-01-05T10:13:08.311Z,100183.69
2023-01-05T10:15:46.606Z,100187.16
2023-01-05T10:18:16.343Z,100194.19
2023-01-05T10:20:54.783Z,100189.69
2023-01-05T10:24:03.585Z,100194.84
2023-01-05T10:27:14.545Z,100208.88
2023-01-05T10:29:44.739Z,100195.72
2023-01-05T10:32:19.853Z,100201.06
2023-01-05T10:34:56.415Z,100241.34
2023-01-05T10:37:39.002Z,100225.59
2023-01-05T10:40:28.376Z,100224.56
2023-01-05T10:43:39.724Z,100224.47
2023-01-05T10:48:57.234Z,100246.50
2023-01-05T10:51:23.885Z,100249.13
2023-01-05T10:53:50.623Z,100248.19
2023-01-05T10:56:26.073Z,100249.13
2023-01-05T10:59:10.783Z,100257.91
2023-01-05T11:01:38.563Z,100268.56
2023-01-05T11:04:33.680Z,100264.16
2023-01-05T11:07:06.178Z,100306.28
2023-01-05T11:09:33.771Z,100277.31
2023-01-05T11:12:02.879Z,100286.09
2023-01-05T11:14:33.737Z,100293.09
2023-01-05T11:17:05.830Z,100305.25
2023-01-05T11:19:37.762Z,100315.03
2023-01-05T11:22:04.360Z,100323.72
2023-01-05T11:24:35.557Z,100336.00
2023-01-05T11:27:05.970Z,100334.53
2023-01-05T11:29:32.685Z,100342.22
2023-01-05T11:32:05.042Z,100342.28
2023-01-05T11:34:34.642Z,100349.28
2023-01-05T11:37:07.831Z,100350.09
2023-01-05T11:39:46.907Z,100365.88
2023-01-05T11:42:23.300Z,100353.56
2023-01-05T11:44:59.935Z,100356.25
2023-01-05T11:47:29.864Z,100374.97
2023-01-05T11:50:08.544Z,100380.03
2023-01-05T11:52:38.699Z,100392.50
2023-01-05T11:55:20.798Z,100396.00
2023-01-05T11:57:49.751Z,100398.97
2023-01-05T12:00:28.695Z,100424.41
2023-01-05T12:03:34.644Z,100428.22
2023-01-05T12:06:27.639Z,100437.13
2023-01-05T12:08:57.206Z,100448.69
2023-01-05T12:11:24.174Z,100444.22
2023-01-05T12:14:12.325Z,100455.75
2023-01-05T12:16:55.859Z,100471.53
2023-01-05T12:19:28.396Z,100482.16
2023-01-05T12:22:21.749Z,100471.75
2023-01-05T12:24:54.379Z,100482.31
2023-01-05T12:27:27.105Z,100481.59
2023-01-05T12:36:25.149Z,100508.75
2023-01-05T12:39:06.892Z,100527.13
2023-01-05T12:41:43.636Z,100528.94
2023-01-05T12:44:47.931Z,100536.81
2023-01-05T12:47:29.423Z,100549.06
2023-01-05T12:50:00.875Z,100548.22
2023-01-05T12:52:33.118Z,100556.13
2023-01-05T12:55:06.425Z,100550.84
2023-01-05T12:57:42.024Z,100556.16
2023-01-05T13:00:14.360Z,100560.53
2023-01-05T13:02:44.523Z,100561.41
2023-01-05T13:05:20.036Z,100564.06
2023-01-05T13:07:46.547Z,100572.75
2023-01-05T13:10:20.591Z,100571.06
2023-01-05T13:12:50.952Z,100577.22
2023-01-05T13:15:44.315Z,100606.97
2023-01-05T13:18:15.676Z,100607.03
2023-01-05T13:20:45.381Z,100605.28
2023-01-05T13:23:18.766Z,100600.84
2023-01-05T13:25:58.592Z,100613.13
2023-01-05T13:28:27.481Z,100617.50
2023-01-05T13:31:34.368Z,100622.75
2023-01-05T13:34:26.056Z,100624.56
2023-01-05T13:37:11.392Z,100645.53
2023-01-05T13:40:00.951Z,100650.72
2023-01-05T13:42:52.906Z,100654.25
2023-01-05T13:45:29.515Z,100664.84
2023-01-05T13:48:25.563Z,100676.19
2023-01-05T13:51:33.586Z,100684.94
2023-01-05T13:54:05.152Z,100680.59
2023-01-05T13:56:33.329Z,100688.44
2023-01-05T13:59:19.486Z,100681.41
2023-01-05T14:01:56.741Z,100699.81
2023-01-05T14:04:26.321Z,100705.91
2023-01-05T14:06:59.467Z,100719.06
2023-01-05T14:09:37.776Z,100714.72
2023-01-05T14:12:07.144Z,100715.56
2023-01-05T14:15:04.812Z,100726.91
2023-01-05T14:17:53.838Z,100731.28
2023-01-05T14:20:40.847Z,100741.75
2023-01-05T14:23:22.974Z,100736.50
2023-01-05T14:25:53.916Z,100754.88
2023-01-05T14:28:35.616Z,100773.25
2023-01-05T14:31:08.492Z,100779.38
2023-01-05T14:33:46.538Z,100779.38
2023-01-05T14:36:25.335Z,100794.22
2023-01-05T14:38:52.142Z,100795.06
2023-01-05T14:41:29.809Z,100794.19
2023-01-05T14:44:06.965Z,100802.97
2023-01-05T14:46:46.510Z,100817.81
2023-01-05T14:49:30.136Z,100823.06
2023-01-05T14:51:59.516Z,100821.31
2023-01-05T14:55:04.961Z,100830.03
2023-01-05T14:57:49.311Z,100843.97
2023-01-05T15:00:41.326Z,100846.59
2023-01-05T15:03:36.724Z,100853.63
2023-01-05T15:06:15.823Z,100857.06
2023-01-05T15:09:15.950Z,100854.47
2023-01-05T15:12:07.192Z,100871.09
2023-01-05T15:14:59.546Z,100857.97
2023-01-05T15:18:00.782Z,100860.56
2023-01-05T15:20:58.041Z,100881.47
2023-01-05T15:24:02.514Z,100897.22
2023-01-05T15:26:50.333Z,100900.69
2023-01-05T15:29:38.705Z,100903.31
2023-01-05T15:32:44.931Z,100906.81
2023-01-05T15:35:22.014Z,100906.81
2023-01-05T15:37:52.081Z,100919.88
2023-01-05T15:40:21.815Z,100919.91
2023-01-05T15:42:50.922Z,100926.00
2023-01-05T15:45:20.134Z,100932.13
2023-01-05T15:47:47.195Z,100924.19
2023-01-05T15:50:32.888Z,100925.06
2023-01-05T15:53:00.945Z,100926.81
2023-01-05T15:55:28.997Z,100925.97
2023-01-05T15:58:01.062Z,100932.03
2023-01-05T16:00:38.712Z,100949.47
2023-01-05T16:03:28.197Z,100948.63
2023-01-05T16:06:00.388Z,100947.75
2023-01-05T16:08:27.385Z,100942.56
2023-01-05T16:10:57.244Z,100948.59
2023-01-05T16:13:31.036Z,100953.81
2023-01-05T16:15:59.459Z,100953.00
2023-01-05T16:18:33.981Z,100962.59
2023-01-05T16:21:05.585Z,100966.88
2023-01-05T16:23:40.888Z,100981.75
2023-01-05T16:26:15.237Z,100988.72
2023-01-05T16:28:41.780Z,100994.84
2023-01-05T16:31:32.609Z,101005.34
2023-01-05T16:34:17.363Z,101014.00
2023-01-05T16:37:03.402Z,101011.38
2023-01-05T16:39:37.846Z,101029.72
2023-01-05T16:42:40.328Z,101027.09
2023-01-05T16:45:29.848Z,101028.84
2023-01-05T16:47:56.635Z,101039.19
2023-01-05T16:50:23.144Z,101040.13
2023-01-05T16:52:56.819Z,101040.19
2023-01-05T16:55:28.664Z,101041.13
2023-01-05T16:57:56.916Z,101038.56
2023-01-05T17:00:29.964Z,101047.97
2023-01-05T17:02:57.776Z,101053.22
2023-01-05T17:05:26.920Z,101050.66
2023-01-05T17:08:14.718Z,101053.28
2023-01-05T17:10:41.950Z,101064.59
2023-01-05T17:13:16.572Z,101061.19
2023-01-05T17:15:45.000Z,101067.31
2023-01-05T17:18:24.041Z,101076.91
2023-01-05T17:20:52.058Z,101077.78
2023-01-05T17:23:21.304Z,101084.72
2023-01-05T17:25:48.319Z,101084.78
2023-01-05T17:28:15.215Z,101100.41
2023-01-05T17:30:42.291Z,101088.06
2023-01-05T17:33:09.118Z,101084.56
2023-01-05T17:35:36.198Z,101085.44
2023-01-05T17:38:02.809Z,101095.09
2023-01-05T17:40:29.643Z,101096.84
2023-01-05T17:42:56.276Z,101099.41
2023-01-05T17:45:24.591Z,101108.19
2023-01-05T17:47:51.211Z,101108.22
2023-01-05T17:50:21.145Z,101119.53
2023-01-05T17:52:47.866Z,101124.78
2023-01-05T17:55:14.698Z,101123.66
2023-01-05T17:57:42.316Z,101132.41
2023-01-05T18:00:11.403Z,101133.34
2023-01-05T18:02:38.531Z,101138.69
2023-01-05T18:05:05.596Z,101140.19
2023-01-05T18:07:32.902Z,101140.31
2023-01-05T18:09:59.813Z,101140.44
2023-01-05T18:12:27.486Z,101145.56
2023-01-05T18:14:54.409Z,101143.84
2023-01-05T18:17:22.378Z,101151.69
2023-01-05T18:19:49.113Z,101154.19
2023-01-05T18:22:16.249Z,101133.28
2023-01-05T18:24:43.329Z,101151.47
2023-01-05T18:27:10.813Z,101155.84
2023-01-05T18:29:38.182Z,101159.31
2023-01-05T18:32:05.413Z,101166.34
2023-01-05T18:34:32.043Z,101173.38
2023-01-05T18:37:05.830Z,101182.09
2023-01-05T18:39:33.173Z,101186.25
2023-01-05T18:42:02.652Z,101190.72
2023-01-05T18:44:29.293Z,101188.81
2023-01-05T18:46:56.033Z,101194.13
2023-01-05T18:49:22.725Z,101205.34
2023-01-05T18:51:51.334Z,101200.75
2023-01-05T18:54:18.525Z,101202.75
2023-01-05T18:56:45.143Z,101198.47
2023-01-05T18:59:14.283Z,101203.59
2023-01-05T19:01:44.717Z,101201.97
2023-01-05T19:04:12.652Z,101200.09
2023-01-05T19:06:39.640Z,101198.28
2023-01-05T19:09:08.800Z,101196.53
2023-01-05T19:11:36.501Z,101208.69
2023-01-05T19:14:04.637Z,101213.94
2023-01-05T19:16:34.296Z,101220.97
2023-01-05T19:19:08.219Z,101223.63
2023-01-05T19:21:37.841Z,101237.53
2023-01-05T19:24:06.182Z,101235.78
2023-01-05T19:26:33.489Z,101248.84
2023-01-05T19:29:01.442Z,101241.09
2023-01-05T19:31:29.186Z,101246.31
2023-01-05T19:33:58.962Z,101249.94
2023-01-05T19:36:32.288Z,101254.06
2023-01-05T19:39:00.615Z,101246.16
2023-01-05T19:41:27.660Z,101247.06
2023-01-05T19:43:55.368Z,101246.22
2023-01-05T19:46:23.848Z,101247.06
2023-01-05T19:48:50.905Z,101242.75
2023-01-05T19:51:23.593Z,101247.09
2023-01-05T19:53:57.401Z,101247.06
2023-01-05T19:56:26.667Z,101244.34
2023-01-05T19:58:56.123Z,101252.34
2023-01-05T20:01:24.492Z,101248.75
2023-01-05T20:03:51.926Z,101247.00
2023-01-05T20:06:23.774Z,101251.22
2023-01-05T20:08:54.922Z,101260.91
2023-01-05T20:11:39.590Z,101261.78
2023-01-05T20:14:20.724Z,101271.22
2023-01-05T20:16:52.694Z,101273.78
2023-01-05T20:19:20.492Z,101271.16
2023-01-05T20:21:48.492Z,101276.34
2023-01-05T20:24:22.389Z,101277.25
2023-01-05T20:26:50.903Z,101279.16
2023-01-05T20:29:20.198Z,101286.84
2023-01-05T20:31:55.564Z,101293.78
2023-01-05T20:34:24.161Z,101289.75
2023-01-05T20:36:51.020Z,101283.44
2023-01-05T20:39:22.123Z,101284.19
2023-01-05T20:41:50.869Z,101289.44
2023-01-05T20:44:23.254Z,101291.88
2023-01-05T20:46:51.230Z,101298.00
2023-01-05T20:49:18.154Z,101291.72
2023-01-05T20:51:44.791Z,101296.94
2023-01-05T20:54:11.857Z,101294.25
2023-01-05T20:56:40.473Z,101300.72
2023-01-05T20:59:10.848Z,101306.34
2023-01-05T21:01:37.990Z,101313.91
2023-01-05T21:04:05.651Z,101317.25
2023-01-05T21:06:32.556Z,101315.34
2023-01-05T21:08:59.193Z,101316.16
2023-01-05T21:11:26.013Z,101328.59
2023-01-05T21:13:54.639Z,101340.88
2023-01-05T21:16:23.278Z,101336.56
2023-01-05T21:18:50.471Z,101349.22
2023-01-05T21:21:18.393Z,101342.78
2023-01-05T21:23:47.852Z,101351.31
2023-01-05T21:26:15.825Z,101352.75
2023-01-05T21:28:43.404Z,101351.16
2023-01-05T21:31:21.779Z,101364.19
2023-01-05T21:33:48.463Z,101360.28
2023-01-05T21:36:17.681Z,101358.28
2023-01-05T21:39:02.382Z,101359.47
2023-01-05T21:42:11.978Z,101374.78
2023-01-05T21:44:39.660Z,101371.06
2023-01-05T21:47:06.939Z,101377.69
2023-01-05T21:49:34.580Z,101371.34
2023-01-05T21:52:19.743Z,101372.81
2023-01-05T21:55:04.979Z,101365.91
2023-01-05T21:57:31.668Z,101368.25
2023-01-05T21:59:58.336Z,101372.53
2023-01-05T22:02:24.996Z,101369.69
2023-01-05T22:04:51.727Z,101371.00
2023-01-05T22:07:18.421Z,101369.13
2023-01-05T22:09:45.228Z,101377.63
2023-01-05T22:12:11.997Z,101371.25
2023-01-05T22:14:38.801Z,101370.13
2023-01-05T22:17:06.623Z,101371.09
2023-01-05T22:19:33.237Z,101373.34
2023-01-05T22:21:59.980Z,101381.59
2023-01-05T22:24:26.598Z,101389.84
2023-01-05T22:26:53.259Z,101394.72
2023-01-05T22:29:19.941Z,101395.66
2023-01-05T22:31:46.813Z,101383.41
2023-01-05T22:34:13.461Z,101399.09
2023-01-05T22:36:40.144Z,101395.03
2023-01-05T22:39:07.184Z,101395.56
2023-01-05T22:41:33.990Z,101395.31
2023-01-05T22:44:05.447Z,101405.38
2023-01-05T22:46:32.103Z,101405.16
2023-01-05T22:48:59.360Z,101404.06
2023-01-05T22:51:35.292Z,101408.38
2023-01-05T22:54:04.104Z,101408.16
2023-01-05T22:56:34.597Z,101404.34
2023-01-05T22:59:01.980Z,101400.16
2023-01-05T23:01:33.915Z,101393.63
2023-01-05T23:04:05.105Z,101392.25
2023-01-05T23:06:34.914Z,101395.81
2023-01-05T23:09:02.709Z,101386.75
2023-01-05T23:11:35.103Z,101377.75
2023-01-05T23:14:03.355Z,101377.69
2023-01-05T23:16:30.629Z,101387.88
2023-01-05T23:18:59.834Z,101391.59
2023-01-05T23:21:27.448Z,101401.34
2023-01-05T23:23:55.389Z,101395.78
2023-01-05T23:26:22.717Z,101405.84
2023-01-05T23:28:49.536Z,101403.63
2023-01-05T23:31:17.428Z,101403.34
2023-01-05T23:33:48.131Z,101401.47
2023-01-05T23:36:16.484Z,101399.81
2023-01-05T23:38:46.068Z,101400.50
2023-01-05T23:41:14.509Z,101396.34
2023-01-05T23:43:42.351Z,101394.56
2023-01-05T23:46:12.033Z,101400.50
2023-01-05T23:48:38.757Z,101404.72
2023-01-05T23:51:11.336Z,101395.91
2023-01-05T23:53:37.962Z,101401.19
2023-01-05T23:56:14.682Z,101399.63
2023-01-05T23:58:42.426Z,101401.03
